createdAt,value
2019-05-07T00:00:57.609Z,0.00
2019-05-07T00:01:57.602Z,0.00
2019-05-07T00:02:57.597Z,0.00
2019-05-07T00:03:57.590Z,0.00
2019-05-07T00:04:57.584Z,0.00
2019-05-07T00:05:57.577Z,0.00
2019-05-07T00:06:57.573Z,0.00
2019-05-07T00:07:57.567Z,0.00
2019-05-07T00:08:57.562Z,0.00
2019-05-07T00:09:57.553Z,0.00
2019-05-07T00:10:57.550Z,0.00
2019-05-07T00:11:57.542Z,0.00
2019-05-07T00:12:57.536Z,0.00
2019-05-07T00:13:57.529Z,0.00
2019-05-07T00:15:01.459Z,0.00
2019-05-07T00:15:57.518Z,0.00
2019-05-07T00:16:57.512Z,0.00
2019-05-07T00:17:57.506Z,0.00
2019-05-07T00:18:57.501Z,0.00
2019-05-07T00:19:57.494Z,0.00
2019-05-07T00:20:57.490Z,0.00
2019-05-07T00:21:57.480Z,0.00
2019-05-07T00:22:57.480Z,0.00
2019-05-07T00:23:57.471Z,0.00
2019-05-07T00:24:57.713Z,0.00
2019-05-07T00:25:57.456Z,0.00
2019-05-07T00:26:57.451Z,0.00
2019-05-07T00:27:57.445Z,0.00
2019-05-07T00:28:57.439Z,0.00
2019-05-07T00:29:57.431Z,0.00
2019-05-07T00:30:57.426Z,0.00
2019-05-07T00:31:57.420Z,0.00
2019-05-07T00:32:57.414Z,0.00
2019-05-07T00:33:57.407Z,0.00
2019-05-07T00:34:57.403Z,0.00
2019-05-07T00:35:57.396Z,0.00
2019-05-07T00:36:57.388Z,0.00
2019-05-07T00:37:57.385Z,0.00
2019-05-07T00:38:57.377Z,0.00
2019-05-07T00:39:57.371Z,0.00
2019-05-07T00:40:57.364Z,0.00
2019-05-07T00:41:57.361Z,0.00
2019-05-07T00:42:57.353Z,0.00
2019-05-07T00:43:57.348Z,0.00
2019-05-07T00:44:57.340Z,0.00
2019-05-07T00:45:57.358Z,0.00
2019-05-07T00:46:57.331Z,0.00
2019-05-07T00:47:57.323Z,0.00
2019-05-07T00:48:57.317Z,0.00
2019-05-07T00:49:57.310Z,0.00
2019-05-07T00:50:57.304Z,0.00
2019-05-07T00:51:57.299Z,0.00
2019-05-07T00:52:57.291Z,0.00
2019-05-07T00:53:57.286Z,0.00
2019-05-07T00:54:57.278Z,0.00
2019-05-07T00:55:57.273Z,0.00
2019-05-07T00:56:57.266Z,0.00
2019-05-07T00:57:57.260Z,0.00
2019-05-07T00:58:57.254Z,0.00
2019-05-07T00:59:57.250Z,0.00
2019-05-07T01:00:57.242Z,0.00
2019-05-07T01:01:57.235Z,0.00
2019-05-07T01:02:57.229Z,0.00
2019-05-07T01:03:57.227Z,0.00
2019-05-07T01:04:57.218Z,0.00
2019-05-07T01:05:57.212Z,0.00
2019-05-07T01:06:57.205Z,0.00
2019-05-07T01:07:57.199Z,0.00
2019-05-07T01:08:57.196Z,0.00
2019-05-07T01:09:57.186Z,0.00
2019-05-07T01:10:57.181Z,0.00
2019-05-07T01:11:57.175Z,0.00
2019-05-07T01:12:59.262Z,0.00
2019-05-07T01:13:57.162Z,0.00
2019-05-07T01:14:57.156Z,0.00
2019-05-07T01:15:57.151Z,0.00
2019-05-07T01:16:57.144Z,0.00
2019-05-07T01:17:57.138Z,0.00
2019-05-07T01:18:57.131Z,0.00
2019-05-07T01:19:57.126Z,0.00
2019-05-07T01:20:57.119Z,0.00
2019-05-07T01:21:57.118Z,0.00
2019-05-07T01:22:57.113Z,0.00
2019-05-07T01:23:57.101Z,0.00
2019-05-07T01:24:57.095Z,0.00
2019-05-07T01:25:57.088Z,0.00
2019-05-07T01:26:57.083Z,0.00
2019-05-07T01:27:57.077Z,0.00
2019-05-07T01:28:57.070Z,0.00
2019-05-07T01:29:57.068Z,0.00
2019-05-07T01:30:57.058Z,0.00
2019-05-07T01:31:57.052Z,0.00
2019-05-07T01:32:57.046Z,0.00
2019-05-07T01:33:57.041Z,0.00
2019-05-07T01:34:57.034Z,0.00
2019-05-07T01:35:57.029Z,0.00
2019-05-07T01:36:57.021Z,0.00
2019-05-07T01:37:57.016Z,0.00
2019-05-07T01:38:57.009Z,0.00
2019-05-07T01:39:57.004Z,0.00
2019-05-07T01:40:57.000Z,0.00
2019-05-07T01:41:56.992Z,0.00
2019-05-07T01:42:56.986Z,0.00
2019-05-07T01:43:56.979Z,0.00
2019-05-07T01:44:56.974Z,0.00
2019-05-07T01:45:56.966Z,0.00
2019-05-07T01:46:56.962Z,0.00
2019-05-07T01:47:56.955Z,0.00
2019-05-07T01:48:57.587Z,0.00
2019-05-07T01:49:56.970Z,0.00
2019-05-07T01:50:56.937Z,0.00
2019-05-07T01:51:56.930Z,0.00
2019-05-07T01:52:56.923Z,0.00
2019-05-07T01:53:56.918Z,0.00
2019-05-07T01:54:56.913Z,0.00
2019-05-07T01:55:56.908Z,0.00
2019-05-07T01:56:56.898Z,0.00
2019-05-07T01:57:56.894Z,0.00
2019-05-07T01:58:56.887Z,0.00
2019-05-07T01:59:56.881Z,0.00
2019-05-07T02:00:56.875Z,0.00
2019-05-07T02:01:56.870Z,0.00
2019-05-07T02:02:56.865Z,0.00
2019-05-07T02:03:56.855Z,0.00
2019-05-07T02:04:56.848Z,0.00
2019-05-07T02:05:56.844Z,0.00
2019-05-07T02:06:56.841Z,0.00
2019-05-07T02:07:56.831Z,0.00
2019-05-07T02:08:56.824Z,0.00
2019-05-07T02:09:56.818Z,0.00
2019-05-07T02:10:56.812Z,0.00
2019-05-07T02:11:56.807Z,0.00
2019-05-07T02:12:56.798Z,0.00
2019-05-07T02:13:56.791Z,0.00
2019-05-07T02:14:56.786Z,0.00
2019-05-07T02:16:00.825Z,0.00
2019-05-07T02:16:56.772Z,0.00
2019-05-07T02:17:56.767Z,0.00
2019-05-07T02:18:56.759Z,0.00
2019-05-07T02:19:56.754Z,0.00
2019-05-07T02:20:56.747Z,0.00
2019-05-07T02:21:56.742Z,0.00
2019-05-07T02:22:56.735Z,0.00
2019-05-07T02:23:56.729Z,0.00
2019-05-07T02:24:56.721Z,0.00
2019-05-07T02:25:56.717Z,0.00
2019-05-07T02:26:56.708Z,0.00
2019-05-07T02:27:56.707Z,0.00
2019-05-07T02:28:56.696Z,0.00
2019-05-07T02:29:56.690Z,0.00
2019-05-07T02:30:56.689Z,0.00
2019-05-07T02:31:56.679Z,0.00
2019-05-07T02:32:56.671Z,0.00
2019-05-07T02:33:56.666Z,0.00
2019-05-07T02:34:56.659Z,0.00
2019-05-07T02:35:56.660Z,0.00
2019-05-07T02:36:56.644Z,0.00
2019-05-07T02:37:57.137Z,0.00
2019-05-07T02:38:56.631Z,0.00
2019-05-07T02:39:56.630Z,0.00
2019-05-07T02:40:56.617Z,0.00
2019-05-07T02:41:56.658Z,0.00
2019-05-07T02:42:56.606Z,0.00
2019-05-07T02:43:59.947Z,0.00
2019-05-07T02:44:56.590Z,0.00
2019-05-07T02:45:56.585Z,0.00
2019-05-07T02:46:56.578Z,0.00
2019-05-07T02:47:56.579Z,0.00
2019-05-07T02:48:56.565Z,0.00
2019-05-07T02:49:56.558Z,0.00
2019-05-07T02:50:56.552Z,0.00
2019-05-07T02:51:56.546Z,0.00
2019-05-07T02:52:56.539Z,0.00
2019-05-07T02:53:56.542Z,0.00
2019-05-07T02:54:56.532Z,0.00
2019-05-07T02:55:56.528Z,0.00
2019-05-07T02:56:56.515Z,0.00
2019-05-07T02:57:56.505Z,0.00
2019-05-07T02:58:56.498Z,0.00
2019-05-07T02:59:56.492Z,0.00
2019-05-07T03:00:56.496Z,0.00
2019-05-07T03:01:56.479Z,0.00
2019-05-07T03:02:56.478Z,0.00
2019-05-07T03:03:56.471Z,0.00
2019-05-07T03:04:56.458Z,0.00
2019-05-07T03:05:56.453Z,0.00
2019-05-07T03:06:56.447Z,0.00
2019-05-07T03:07:56.444Z,0.00
2019-05-07T03:08:56.440Z,0.00
2019-05-07T03:09:56.427Z,0.00
2019-05-07T03:10:56.426Z,0.00
2019-05-07T03:11:56.412Z,0.00
2019-05-07T03:12:56.405Z,0.00
2019-05-07T03:13:56.400Z,0.00
2019-05-07T03:14:56.395Z,0.00
2019-05-07T03:15:56.386Z,0.00
2019-05-07T03:16:56.380Z,0.00
2019-05-07T03:17:56.373Z,0.00
2019-05-07T03:18:56.370Z,0.00
2019-05-07T03:19:56.359Z,0.00
2019-05-07T03:20:56.353Z,0.00
2019-05-07T03:21:56.352Z,0.00
2019-05-07T03:22:56.341Z,0.00
2019-05-07T03:23:56.336Z,0.00
2019-05-07T03:24:56.327Z,0.00
2019-05-07T03:25:56.323Z,0.00
2019-05-07T03:26:56.316Z,0.00
2019-05-07T03:27:56.309Z,0.00
2019-05-07T03:28:56.302Z,0.00
2019-05-07T03:29:56.294Z,0.00
2019-05-07T03:30:57.148Z,0.00
2019-05-07T03:31:56.973Z,0.00
2019-05-07T03:32:56.637Z,0.00
2019-05-07T03:33:56.566Z,0.00
2019-05-07T03:34:57.853Z,0.00
2019-05-07T03:35:57.073Z,0.00
2019-05-07T03:36:57.169Z,0.00
2019-05-07T03:37:56.245Z,0.00
2019-05-07T03:38:56.236Z,0.00
2019-05-07T03:39:56.230Z,0.00
2019-05-07T03:40:56.223Z,0.00
2019-05-07T03:41:56.217Z,0.00
2019-05-07T03:42:56.211Z,0.00
2019-05-07T03:43:56.204Z,0.00
2019-05-07T03:44:56.199Z,0.00
2019-05-07T03:45:56.191Z,0.00
2019-05-07T03:47:02.367Z,0.00
2019-05-07T03:47:56.181Z,0.00
2019-05-07T03:48:56.171Z,0.00
2019-05-07T03:49:56.167Z,0.00
2019-05-07T03:50:56.160Z,0.00
2019-05-07T03:51:56.158Z,0.00
2019-05-07T03:52:56.147Z,0.00
2019-05-07T03:53:56.139Z,0.00
2019-05-07T03:54:56.136Z,0.00
2019-05-07T03:55:56.129Z,0.00
2019-05-07T03:56:56.119Z,0.00
2019-05-07T03:57:56.113Z,0.00
2019-05-07T03:58:56.109Z,0.00
2019-05-07T03:59:56.106Z,0.00
2019-05-07T04:00:56.106Z,0.00
2019-05-07T04:01:56.088Z,0.00
2019-05-07T04:02:56.082Z,0.00
2019-05-07T04:03:56.075Z,0.00
2019-05-07T04:04:56.068Z,0.00
2019-05-07T04:05:56.061Z,0.00
2019-05-07T04:06:56.056Z,0.00
2019-05-07T04:07:56.049Z,0.00
2019-05-07T04:08:56.044Z,0.00
2019-05-07T04:09:56.035Z,0.00
2019-05-07T04:10:56.030Z,0.00
2019-05-07T04:11:56.022Z,0.00
2019-05-07T04:12:56.015Z,0.00
2019-05-07T04:13:56.008Z,0.00
2019-05-07T04:14:56.005Z,0.00
2019-05-07T04:15:55.997Z,0.00
2019-05-07T04:17:13.284Z,0.00
2019-05-07T04:17:55.991Z,0.00
2019-05-07T04:18:55.989Z,0.00
2019-05-07T04:19:55.976Z,0.00
2019-05-07T04:20:55.964Z,0.00
2019-05-07T04:21:55.959Z,0.00
2019-05-07T04:22:55.951Z,0.00
2019-05-07T04:23:55.945Z,0.00
2019-05-07T04:24:55.938Z,0.00
2019-05-07T04:25:55.931Z,0.00
2019-05-07T04:26:55.927Z,0.00
2019-05-07T04:27:55.919Z,0.00
2019-05-07T04:28:55.915Z,0.00
2019-05-07T04:29:55.907Z,0.00
2019-05-07T04:30:55.901Z,0.00
2019-05-07T04:31:55.893Z,0.00
2019-05-07T04:32:55.890Z,0.00
2019-05-07T04:33:55.882Z,0.00
2019-05-07T04:34:55.874Z,0.00
2019-05-07T04:35:55.868Z,0.00
2019-05-07T04:36:55.860Z,0.00
2019-05-07T04:37:55.856Z,0.00
2019-05-07T04:38:55.849Z,0.00
2019-05-07T04:39:55.843Z,0.00
2019-05-07T04:40:55.836Z,0.00
2019-05-07T04:41:55.832Z,0.00
2019-05-07T04:42:55.826Z,0.00
2019-05-07T04:43:55.817Z,0.00
2019-05-07T04:44:55.809Z,0.00
2019-05-07T04:45:55.804Z,0.00
2019-05-07T04:46:55.809Z,0.00
2019-05-07T04:47:55.790Z,0.00
2019-05-07T04:48:55.786Z,0.00
2019-05-07T04:49:55.780Z,0.00
2019-05-07T04:50:55.782Z,0.00
2019-05-07T04:51:55.767Z,0.00
2019-05-07T04:52:55.759Z,0.00
2019-05-07T04:53:55.756Z,0.00
2019-05-07T04:54:55.749Z,0.00
2019-05-07T04:55:55.740Z,0.00
2019-05-07T04:56:55.734Z,0.00
2019-05-07T04:57:55.729Z,0.00
2019-05-07T04:58:55.724Z,0.00
2019-05-07T04:59:55.717Z,0.00
2019-05-07T05:00:55.712Z,0.00
2019-05-07T05:01:55.704Z,0.00
2019-05-07T05:02:55.711Z,0.00
2019-05-07T05:03:55.691Z,0.00
2019-05-07T05:04:55.685Z,0.00
2019-05-07T05:05:55.739Z,0.00
2019-05-07T05:06:55.675Z,0.00
2019-05-07T05:07:55.667Z,0.00
2019-05-07T05:08:56.362Z,0.00
2019-05-07T05:09:55.685Z,0.00
2019-05-07T05:10:55.687Z,0.00
2019-05-07T05:11:55.648Z,0.00
2019-05-07T05:12:55.637Z,0.00
2019-05-07T05:13:55.647Z,0.00
2019-05-07T05:14:55.625Z,0.00
2019-05-07T05:15:55.618Z,0.00
2019-05-07T05:16:55.613Z,0.00
2019-05-07T05:17:55.607Z,0.00
2019-05-07T05:18:55.602Z,0.00
2019-05-07T05:19:55.597Z,0.00
2019-05-07T05:20:55.589Z,0.00
2019-05-07T05:21:55.583Z,0.00
2019-05-07T05:22:55.577Z,0.00
2019-05-07T05:23:55.571Z,0.00
2019-05-07T05:24:55.565Z,0.00
2019-05-07T05:25:55.560Z,0.00
2019-05-07T05:26:55.555Z,0.00
2019-05-07T05:27:55.552Z,0.00
2019-05-07T05:28:55.543Z,0.00
2019-05-07T05:29:55.537Z,0.00
2019-05-07T05:30:55.531Z,0.00
2019-05-07T05:31:55.527Z,0.00
2019-05-07T05:32:55.518Z,0.00
2019-05-07T05:33:55.515Z,0.00
2019-05-07T05:34:55.508Z,0.00
2019-05-07T05:35:55.502Z,0.00
2019-05-07T05:36:55.496Z,0.00
2019-05-07T05:37:55.491Z,0.00
2019-05-07T05:38:55.487Z,0.00
2019-05-07T05:40:05.180Z,0.00
2019-05-07T05:40:55.473Z,0.00
2019-05-07T05:41:55.467Z,0.00
2019-05-07T05:42:55.462Z,0.00
2019-05-07T05:43:55.457Z,0.00
2019-05-07T05:44:55.450Z,0.00
2019-05-07T05:45:55.444Z,0.00
2019-05-07T05:46:55.440Z,0.00
2019-05-07T05:48:04.602Z,0.00
2019-05-07T05:48:55.428Z,0.00
2019-05-07T05:49:55.424Z,0.00
2019-05-07T05:50:55.421Z,0.00
2019-05-07T05:51:55.412Z,0.00
2019-05-07T05:52:55.406Z,0.00
2019-05-07T05:53:55.401Z,0.00
2019-05-07T05:54:55.396Z,0.00
2019-05-07T05:55:55.391Z,0.00
2019-05-07T05:56:55.383Z,0.00
2019-05-07T05:57:55.379Z,0.00
2019-05-07T05:58:55.383Z,0.00
2019-05-07T05:59:55.638Z,0.00
2019-05-07T06:00:55.363Z,0.00
2019-05-07T06:01:55.356Z,0.00
2019-05-07T06:02:55.351Z,0.00
2019-05-07T06:03:55.345Z,0.00
2019-05-07T06:04:55.340Z,0.00
2019-05-07T06:05:55.335Z,0.00
2019-05-07T06:07:07.888Z,0.00
2019-05-07T06:07:55.325Z,0.00
2019-05-07T06:08:55.319Z,0.00
2019-05-07T06:09:55.314Z,0.00
2019-05-07T06:10:55.307Z,0.00
2019-05-07T06:11:55.302Z,0.00
2019-05-07T06:12:55.296Z,0.00
2019-05-07T06:13:55.292Z,0.00
2019-05-07T06:14:55.285Z,0.00
2019-05-07T06:15:55.281Z,0.00
2019-05-07T06:16:55.272Z,0.00
2019-05-07T06:17:55.267Z,0.00
2019-05-07T06:18:55.265Z,0.00
2019-05-07T06:19:55.258Z,0.00
2019-05-07T06:20:55.252Z,0.00
2019-05-07T06:21:55.247Z,0.00
2019-05-07T06:22:55.241Z,0.00
2019-05-07T06:23:55.235Z,0.00
2019-05-07T06:24:56.533Z,0.00
2019-05-07T06:25:55.225Z,0.00
2019-05-07T06:26:55.222Z,0.00
2019-05-07T06:27:55.214Z,0.00
2019-05-07T06:28:55.209Z,0.00
2019-05-07T06:29:55.203Z,0.00
2019-05-07T06:30:55.198Z,0.00
2019-05-07T06:31:55.193Z,0.00
2019-05-07T06:32:55.189Z,0.00
2019-05-07T06:33:55.182Z,0.00
2019-05-07T06:34:55.204Z,0.00
2019-05-07T06:35:55.170Z,0.00
2019-05-07T06:36:55.166Z,0.00
2019-05-07T06:37:55.160Z,0.00
2019-05-07T06:38:55.154Z,0.00
2019-05-07T06:39:55.149Z,0.00
2019-05-07T06:40:55.144Z,0.00
2019-05-07T06:41:55.138Z,0.00
2019-05-07T06:42:55.132Z,0.00
2019-05-07T06:43:55.129Z,0.00
2019-05-07T06:44:55.121Z,0.00
2019-05-07T06:45:55.119Z,0.00
2019-05-07T06:46:55.112Z,0.00
2019-05-07T06:47:55.110Z,0.00
2019-05-07T06:48:55.101Z,0.00
2019-05-07T06:49:55.098Z,0.00
2019-05-07T06:50:55.092Z,0.00
2019-05-07T06:51:55.088Z,0.00
2019-05-07T06:52:55.081Z,0.00
2019-05-07T06:53:55.075Z,0.00
2019-05-07T06:54:55.069Z,0.00
2019-05-07T06:55:55.064Z,0.00
2019-05-07T06:56:55.059Z,0.00
2019-05-07T06:57:55.054Z,0.00
2019-05-07T06:58:55.052Z,0.00
2019-05-07T06:59:55.043Z,0.00
2019-05-07T07:00:55.038Z,0.00
2019-05-07T07:01:55.033Z,0.00
2019-05-07T07:02:55.029Z,0.00
2019-05-07T07:03:55.024Z,0.00
2019-05-07T07:04:55.018Z,0.00
2019-05-07T07:05:55.015Z,0.00
2019-05-07T07:06:55.009Z,0.00
2019-05-07T07:07:55.008Z,0.00
2019-05-07T07:08:55.015Z,0.00
2019-05-07T07:09:54.994Z,0.00
2019-05-07T07:10:54.988Z,0.00
2019-05-07T07:11:54.984Z,0.00
2019-05-07T07:12:54.979Z,0.00
2019-05-07T07:13:54.974Z,0.00
2019-05-07T07:14:56.571Z,3.90
2019-05-07T07:15:54.964Z,6.37
2019-05-07T07:16:54.959Z,5.51
2019-05-07T07:17:54.955Z,7.04
2019-05-07T07:18:55.789Z,6.94
2019-05-07T07:19:54.947Z,8.94
2019-05-07T07:20:54.940Z,9.99
2019-05-07T07:21:54.937Z,10.56
2019-05-07T07:22:54.933Z,12.84
2019-05-07T07:23:54.929Z,13.60
2019-05-07T07:24:54.921Z,13.98
2019-05-07T07:25:54.919Z,14.74
2019-05-07T07:26:54.916Z,14.46
2019-05-07T07:27:54.909Z,15.88
2019-05-07T07:28:54.903Z,14.93
2019-05-07T07:29:54.898Z,16.64
2019-05-07T07:30:54.898Z,15.23
2019-05-07T07:31:54.893Z,18.84
2019-05-07T07:32:54.886Z,21.59
2019-05-07T07:33:54.882Z,19.70
2019-05-07T07:34:54.877Z,19.12
2019-05-07T07:35:54.879Z,20.83
2019-05-07T07:37:04.998Z,18.84
2019-05-07T07:37:54.865Z,18.94
2019-05-07T07:38:54.858Z,17.60
2019-05-07T07:39:54.857Z,17.88
2019-05-07T07:40:54.851Z,16.83
2019-05-07T07:41:54.846Z,16.46
2019-05-07T07:42:54.843Z,21.79
2019-05-07T07:43:54.839Z,23.13
2019-05-07T07:44:54.834Z,25.12
2019-05-07T07:45:54.829Z,25.12
2019-05-07T07:46:54.828Z,24.37
2019-05-07T07:47:54.822Z,21.70
2019-05-07T07:49:06.629Z,23.79
2019-05-07T07:49:54.812Z,28.47
2019-05-07T07:50:54.808Z,31.23
2019-05-07T07:51:54.804Z,28.75
2019-05-07T07:52:54.800Z,27.33
2019-05-07T07:53:54.795Z,26.48
2019-05-07T07:54:54.794Z,33.25
2019-05-07T07:55:54.787Z,33.15
2019-05-07T07:56:56.599Z,36.68
2019-05-07T07:57:54.781Z,42.49
2019-05-07T07:58:54.775Z,46.97
2019-05-07T07:59:54.774Z,44.68
2019-05-07T08:00:54.771Z,47.54
2019-05-07T08:01:54.765Z,47.94
2019-05-07T08:02:54.764Z,55.47
2019-05-07T08:03:54.759Z,55.09
2019-05-07T08:04:54.758Z,55.66
2019-05-07T08:05:54.752Z,54.61
2019-05-07T08:06:54.753Z,55.38
2019-05-07T08:07:54.749Z,59.86
2019-05-07T08:08:54.745Z,58.81
2019-05-07T08:09:54.740Z,56.26
2019-05-07T08:10:54.736Z,58.75
2019-05-07T08:11:54.734Z,62.30
2019-05-07T08:12:54.733Z,64.40
2019-05-07T08:13:54.730Z,68.32
2019-05-07T08:14:54.727Z,71.69
2019-05-07T08:15:54.726Z,72.45
2019-05-07T08:16:54.724Z,74.42
2019-05-07T08:17:54.727Z,75.85
2019-05-07T08:18:54.720Z,75.76
2019-05-07T08:19:54.719Z,73.28
2019-05-07T08:20:54.721Z,74.90
2019-05-07T08:21:54.718Z,75.51
2019-05-07T08:22:54.717Z,75.79
2019-05-07T08:23:54.715Z,80.81
2019-05-07T08:24:54.713Z,79.77
2019-05-07T08:25:54.715Z,78.77
2019-05-07T08:26:54.712Z,78.62
2019-05-07T08:27:57.779Z,77.76
2019-05-07T08:28:54.712Z,79.00
2019-05-07T08:29:54.710Z,79.67
2019-05-07T08:30:54.717Z,78.85
2019-05-07T08:31:54.711Z,82.48
2019-05-07T08:32:54.711Z,80.95
2019-05-07T08:33:54.711Z,81.90
2019-05-07T08:34:54.711Z,84.72
2019-05-07T08:35:54.710Z,84.81
2019-05-07T08:36:54.710Z,85.10
2019-05-07T08:37:54.711Z,83.67
2019-05-07T08:38:55.726Z,84.62
2019-05-07T08:39:54.714Z,83.99
2019-05-07T08:40:54.714Z,85.29
2019-05-07T08:41:54.715Z,84.47
2019-05-07T08:42:54.715Z,84.99
2019-05-07T08:44:08.108Z,85.41
2019-05-07T08:44:54.720Z,85.46
2019-05-07T08:45:54.720Z,84.50
2019-05-07T08:46:54.722Z,83.30
2019-05-07T08:47:54.726Z,83.11
2019-05-07T08:48:54.726Z,81.43
2019-05-07T08:49:54.730Z,80.56
2019-05-07T08:50:54.734Z,78.55
2019-05-07T08:51:54.738Z,77.02
2019-05-07T08:52:54.742Z,76.06
2019-05-07T08:53:54.746Z,74.87
2019-05-07T08:54:54.750Z,73.55
2019-05-07T08:55:54.756Z,73.96
2019-05-07T08:56:54.760Z,77.84
2019-05-07T08:57:54.765Z,78.03
2019-05-07T08:58:54.769Z,79.52
2019-05-07T09:00:00.228Z,78.16
2019-05-07T09:00:54.778Z,75.91
2019-05-07T09:01:54.783Z,73.67
2019-05-07T09:02:54.788Z,74.02
2019-05-07T09:03:54.793Z,75.49
2019-05-07T09:04:54.797Z,75.83
2019-05-07T09:05:54.811Z,77.01
2019-05-07T09:06:54.806Z,77.38
2019-05-07T09:07:54.813Z,75.52
2019-05-07T09:08:54.822Z,76.16
2019-05-07T09:09:54.821Z,77.30
2019-05-07T09:10:54.825Z,76.88
2019-05-07T09:11:54.829Z,77.84
2019-05-07T09:12:54.837Z,79.46
2019-05-07T09:13:54.837Z,79.99
2019-05-07T09:14:54.843Z,80.57
2019-05-07T09:15:54.847Z,82.57
2019-05-07T09:16:54.852Z,82.38
2019-05-07T09:17:54.853Z,82.38
2019-05-07T09:18:54.857Z,83.05
2019-05-07T09:19:55.095Z,82.95
2019-05-07T09:20:54.863Z,82.67
2019-05-07T09:21:54.867Z,81.77
2019-05-07T09:22:54.870Z,83.29
2019-05-07T09:23:54.874Z,83.39
2019-05-07T09:24:54.875Z,83.01
2019-05-07T09:25:54.878Z,82.91
2019-05-07T09:26:54.884Z,83.29
2019-05-07T09:27:54.882Z,82.43
2019-05-07T09:28:54.887Z,82.82
2019-05-07T09:29:54.885Z,83.20
2019-05-07T09:30:54.887Z,82.53
2019-05-07T09:31:54.889Z,81.48
2019-05-07T09:32:54.892Z,81.01
2019-05-07T09:33:54.891Z,81.20
2019-05-07T09:34:54.896Z,79.35
2019-05-07T09:35:54.893Z,80.05
2019-05-07T09:36:54.894Z,78.20
2019-05-07T09:37:54.895Z,78.30
2019-05-07T09:38:58.996Z,79.67
2019-05-07T09:39:54.898Z,79.96
2019-05-07T09:40:57.011Z,79.67
2019-05-07T09:41:54.898Z,79.86
2019-05-07T09:42:54.899Z,81.01
2019-05-07T09:43:54.900Z,80.85
2019-05-07T09:44:54.900Z,79.33
2019-05-07T09:45:54.900Z,78.75
2019-05-07T09:46:54.900Z,78.28
2019-05-07T09:47:54.901Z,78.28
2019-05-07T09:48:54.901Z,79.04
2019-05-07T09:50:03.985Z,79.57
2019-05-07T09:50:54.901Z,80.05
2019-05-07T09:51:54.900Z,80.62
2019-05-07T09:52:54.902Z,80.72
2019-05-07T09:53:54.900Z,81.90
2019-05-07T09:54:54.901Z,81.29
2019-05-07T09:55:54.905Z,81.10
2019-05-07T09:56:54.901Z,80.47
2019-05-07T09:57:54.900Z,80.38
2019-05-07T09:58:54.901Z,80.91
2019-05-07T09:59:54.900Z,81.48
2019-05-07T10:00:54.897Z,81.90
2019-05-07T10:01:54.898Z,82.34
2019-05-07T10:02:56.715Z,81.81
2019-05-07T10:03:54.897Z,82.57
2019-05-07T10:04:54.896Z,83.05
2019-05-07T10:05:54.899Z,83.20
2019-05-07T10:06:54.895Z,83.39
2019-05-07T10:07:54.895Z,83.24
2019-05-07T10:08:54.895Z,83.86
2019-05-07T10:09:54.893Z,83.70
2019-05-07T10:10:54.892Z,81.22
2019-05-07T10:11:54.894Z,79.94
2019-05-07T10:12:54.893Z,79.94
2019-05-07T10:13:54.891Z,81.22
2019-05-07T10:14:54.893Z,80.30
2019-05-07T10:15:54.892Z,77.42
2019-05-07T10:16:54.892Z,75.45
2019-05-07T10:17:54.892Z,72.67
2019-05-07T10:18:54.894Z,71.46
2019-05-07T10:19:54.894Z,69.87
2019-05-07T10:20:54.896Z,66.16
2019-05-07T10:21:54.895Z,67.43
2019-05-07T10:22:54.897Z,69.70
2019-05-07T10:23:54.898Z,71.57
2019-05-07T10:24:54.900Z,72.53
2019-05-07T10:25:54.900Z,74.82
2019-05-07T10:26:54.903Z,75.68
2019-05-07T10:27:54.905Z,76.16
2019-05-07T10:28:54.907Z,76.64
2019-05-07T10:29:54.909Z,75.74
2019-05-07T10:30:54.911Z,75.16
2019-05-07T10:31:54.913Z,74.93
2019-05-07T10:32:54.925Z,75.79
2019-05-07T10:33:54.915Z,75.93
2019-05-07T10:34:54.924Z,76.56
2019-05-07T10:35:54.919Z,76.37
2019-05-07T10:36:54.919Z,76.27
2019-05-07T10:37:54.920Z,76.08
2019-05-07T10:38:54.922Z,75.89
2019-05-07T10:39:54.923Z,75.70
2019-05-07T10:40:54.923Z,75.60
2019-05-07T10:41:57.731Z,75.03
2019-05-07T10:42:54.927Z,75.51
2019-05-07T10:43:54.928Z,76.46
2019-05-07T10:44:54.929Z,75.60
2019-05-07T10:45:54.929Z,75.22
2019-05-07T10:46:54.928Z,75.22
2019-05-07T10:47:54.930Z,75.74
2019-05-07T10:48:54.930Z,73.73
2019-05-07T10:49:54.934Z,72.97
2019-05-07T10:50:54.931Z,73.54
2019-05-07T10:51:54.929Z,73.16
2019-05-07T10:52:54.930Z,74.21
2019-05-07T10:53:54.932Z,73.92
2019-05-07T10:54:59.691Z,73.16
2019-05-07T10:55:54.930Z,73.63
2019-05-07T10:56:54.930Z,74.98
2019-05-07T10:57:54.930Z,75.74
2019-05-07T10:58:54.931Z,76.40
2019-05-07T10:59:54.932Z,76.60
2019-05-07T11:00:54.932Z,75.39
2019-05-07T11:01:54.930Z,75.96
2019-05-07T11:02:54.932Z,76.06
2019-05-07T11:03:54.931Z,75.78
2019-05-07T11:04:54.931Z,75.87
2019-05-07T11:05:54.931Z,76.73
2019-05-07T11:06:54.931Z,76.31
2019-05-07T11:07:54.933Z,75.64
2019-05-07T11:08:54.934Z,73.63
2019-05-07T11:09:54.929Z,73.83
2019-05-07T11:10:54.931Z,73.92
2019-05-07T11:11:54.933Z,74.02
2019-05-07T11:12:54.931Z,73.54
2019-05-07T11:13:56.119Z,73.92
2019-05-07T11:14:54.932Z,74.59
2019-05-07T11:15:54.936Z,73.16
2019-05-07T11:16:54.930Z,72.87
2019-05-07T11:17:54.935Z,73.07
2019-05-07T11:18:54.932Z,74.11
2019-05-07T11:19:54.935Z,73.54
2019-05-07T11:20:54.930Z,72.01
2019-05-07T11:21:54.931Z,72.39
2019-05-07T11:22:54.932Z,71.53
2019-05-07T11:23:54.932Z,72.01
2019-05-07T11:24:54.931Z,71.25
2019-05-07T11:25:54.932Z,70.96
2019-05-07T11:26:54.929Z,71.44
2019-05-07T11:27:54.931Z,72.01
2019-05-07T11:28:54.935Z,71.72
2019-05-07T11:29:54.931Z,71.47
2019-05-07T11:30:54.930Z,71.00
2019-05-07T11:31:54.931Z,70.23
2019-05-07T11:32:54.928Z,70.96
2019-05-07T11:33:54.928Z,71.00
2019-05-07T11:34:56.374Z,71.61
2019-05-07T11:35:54.928Z,72.08
2019-05-07T11:36:54.927Z,71.13
2019-05-07T11:37:54.928Z,71.61
2019-05-07T11:38:54.927Z,69.60
2019-05-07T11:39:54.929Z,70.27
2019-05-07T11:40:54.927Z,69.70
2019-05-07T11:41:54.926Z,70.65
2019-05-07T11:42:54.926Z,70.84
2019-05-07T11:43:54.926Z,71.70
2019-05-07T11:44:54.978Z,72.08
2019-05-07T11:45:54.925Z,71.61
2019-05-07T11:46:54.926Z,70.17
2019-05-07T11:47:54.926Z,68.84
2019-05-07T11:48:54.925Z,70.14
2019-05-07T11:49:54.925Z,71.47
2019-05-07T11:51:03.352Z,72.11
2019-05-07T11:51:54.927Z,72.11
2019-05-07T11:52:54.926Z,72.14
2019-05-07T11:53:54.924Z,71.67
2019-05-07T11:54:54.927Z,72.43
2019-05-07T11:55:54.925Z,72.43
2019-05-07T11:56:55.461Z,72.53
2019-05-07T11:57:54.947Z,72.24
2019-05-07T11:58:54.926Z,73.10
2019-05-07T11:59:54.924Z,75.01
2019-05-07T12:00:54.924Z,74.59
2019-05-07T12:01:54.924Z,73.96
2019-05-07T12:02:54.923Z,74.05
2019-05-07T12:03:54.924Z,73.54
2019-05-07T12:04:54.924Z,73.35
2019-05-07T12:05:54.924Z,74.30
2019-05-07T12:06:54.923Z,74.40
2019-05-07T12:07:54.924Z,74.59
2019-05-07T12:08:54.926Z,75.45
2019-05-07T12:09:54.923Z,74.69
2019-05-07T12:10:54.922Z,74.44
2019-05-07T12:11:54.923Z,75.30
2019-05-07T12:12:54.921Z,75.26
2019-05-07T12:13:57.225Z,74.59
2019-05-07T12:14:54.920Z,75.68
2019-05-07T12:15:54.921Z,74.44
2019-05-07T12:16:54.922Z,75.30
2019-05-07T12:17:54.917Z,75.01
2019-05-07T12:18:55.497Z,74.34
2019-05-07T12:19:54.917Z,75.16
2019-05-07T12:20:54.916Z,75.07
2019-05-07T12:21:54.917Z,74.21
2019-05-07T12:22:54.916Z,74.15
2019-05-07T12:23:54.916Z,73.58
2019-05-07T12:24:54.915Z,72.53
2019-05-07T12:25:54.914Z,71.19
2019-05-07T12:26:54.915Z,73.71
2019-05-07T12:27:54.914Z,72.56
2019-05-07T12:28:54.914Z,71.70
2019-05-07T12:29:54.913Z,70.17
2019-05-07T12:30:54.912Z,70.46
2019-05-07T12:31:55.737Z,69.98
2019-05-07T12:32:54.912Z,69.50
2019-05-07T12:33:54.913Z,69.64
2019-05-07T12:34:54.911Z,70.30
2019-05-07T12:35:54.913Z,68.77
2019-05-07T12:36:54.915Z,68.39
2019-05-07T12:37:54.910Z,68.39
2019-05-07T12:38:54.911Z,67.21
2019-05-07T12:39:54.910Z,67.97
2019-05-07T12:40:54.911Z,68.45
2019-05-07T12:41:54.910Z,68.55
2019-05-07T12:42:54.911Z,67.88
2019-05-07T12:43:54.910Z,67.24
2019-05-07T12:44:54.915Z,68.87
2019-05-07T12:45:54.910Z,68.93
2019-05-07T12:46:54.911Z,68.93
2019-05-07T12:47:54.909Z,67.36
2019-05-07T12:48:54.909Z,67.40
2019-05-07T12:49:54.909Z,67.21
2019-05-07T12:50:54.910Z,68.84
2019-05-07T12:51:54.911Z,68.55
2019-05-07T12:52:54.908Z,69.73
2019-05-07T12:53:54.913Z,71.16
2019-05-07T12:54:54.911Z,71.32
2019-05-07T12:55:54.911Z,70.84
2019-05-07T12:56:54.909Z,70.14
2019-05-07T12:57:54.910Z,70.42
2019-05-07T12:58:54.909Z,69.66
2019-05-07T12:59:54.910Z,70.42
2019-05-07T13:00:54.910Z,70.90
2019-05-07T13:01:54.909Z,70.52
2019-05-07T13:02:54.909Z,70.04
2019-05-07T13:03:54.912Z,69.37
2019-05-07T13:04:57.763Z,69.27
2019-05-07T13:05:54.908Z,70.14
2019-05-07T13:06:54.907Z,70.81